sensor_id;sensor_type;location;lat;lon;timestamp;P1;durP1;ratioP1;P2;durP2;ratioP2
55053;SDS011;40954;45.668;18.980;2023-03-01T00:00:50;43.72;;;27.15;;
55053;SDS011;40954;45.668;18.980;2023-03-01T00:03:16;44.88;;;26.40;;
55053;SDS011;40954;45.668;18.980;2023-03-01T00:05:43;45.40;;;27.50;;
55053;SDS011;40954;45.668;18.980;2023-03-01T00:08:10;49.03;;;27.52;;
55053;SDS011;40954;45.668;18.980;2023-03-01T00:10:36;42.45;;;28.40;;
55053;SDS011;40954;45.668;18.980;2023-03-01T00:13:02;43.38;;;27.25;;
55053;SDS011;40954;45.668;18.980;2023-03-01T00:15:30;42.30;;;26.55;;
55053;SDS011;40954;45.668;18.980;2023-03-01T00:17:56;39.22;;;26.83;;
55053;SDS011;40954;45.668;18.980;2023-03-01T00:20:23;37.95;;;26.10;;
55053;SDS011;40954;45.668;18.980;2023-03-01T00:22:49;40.97;;;26.25;;
55053;SDS011;40954;45.668;18.980;2023-03-01T00:25:15;42.58;;;27.33;;
55053;SDS011;40954;45.668;18.980;2023-03-01T00:27:41;43.38;;;26.52;;
55053;SDS011;40954;45.668;18.980;2023-03-01T00:30:07;43.13;;;26.10;;
55053;SDS011;40954;45.668;18.980;2023-03-01T00:32:33;46.42;;;27.77;;
55053;SDS011;40954;45.668;18.980;2023-03-01T00:34:59;46.40;;;27.92;;
55053;SDS011;40954;45.668;18.980;2023-03-01T00:37:25;42.92;;;26.92;;
55053;SDS011;40954;45.668;18.980;2023-03-01T00:39:51;47.80;;;28.33;;
55053;SDS011;40954;45.668;18.980;2023-03-01T00:42:17;40.47;;;27.88;;
55053;SDS011;40954;45.668;18.980;2023-03-01T00:44:44;38.67;;;26.85;;
55053;SDS011;40954;45.668;18.980;2023-03-01T00:47:10;44.20;;;28.67;;
55053;SDS011;40954;45.668;18.980;2023-03-01T00:49:36;43.40;;;26.88;;
55053;SDS011;40954;45.668;18.980;2023-03-01T00:52:02;42.28;;;27.48;;
55053;SDS011;40954;45.668;18.980;2023-03-01T00:54:28;40.15;;;25.70;;
55053;SDS011;40954;45.668;18.980;2023-03-01T00:56:54;41.75;;;26.38;;
55053;SDS011;40954;45.668;18.980;2023-03-01T00:59:20;38.45;;;25.80;;
55053;SDS011;40954;45.668;18.980;2023-03-01T01:01:46;38.95;;;25.30;;
55053;SDS011;40954;45.668;18.980;2023-03-01T01:04:12;38.80;;;24.27;;
55053;SDS011;40954;45.668;18.980;2023-03-01T01:06:42;37.42;;;24.35;;
55053;SDS011;40954;45.668;18.980;2023-03-01T01:09:09;32.50;;;23.58;;
55053;SDS011;40954;45.668;18.980;2023-03-01T01:11:42;38.90;;;25.50;;
55053;SDS011;40954;45.668;18.980;2023-03-01T01:14:08;42.67;;;27.27;;
55053;SDS011;40954;45.668;18.980;2023-03-01T01:16:34;51.28;;;29.80;;
55053;SDS011;40954;45.668;18.980;2023-03-01T01:19:00;54.67;;;30.98;;
55053;SDS011;40954;45.668;18.980;2023-03-01T01:21:26;48.50;;;30.95;;
55053;SDS011;40954;45.668;18.980;2023-03-01T01:23:52;41.72;;;26.55;;
55053;SDS011;40954;45.668;18.980;2023-03-01T01:26:20;50.45;;;31.63;;
55053;SDS011;40954;45.668;18.980;2023-03-01T01:28:46;69.97;;;37.50;;
55053;SDS011;40954;45.668;18.980;2023-03-01T01:31:12;45.08;;;28.25;;
55053;SDS011;40954;45.668;18.980;2023-03-01T01:33:38;49.53;;;30.15;;
55053;SDS011;40954;45.668;18.980;2023-03-01T01:36:05;46.00;;;30.67;;
55053;SDS011;40954;45.668;18.980;2023-03-01T01:38:32;53.20;;;33.22;;
55053;SDS011;40954;45.668;18.980;2023-03-01T01:40:58;56.17;;;31.02;;
55053;SDS011;40954;45.668;18.980;2023-03-01T01:43:26;64.90;;;38.30;;
55053;SDS011;40954;45.668;18.980;2023-03-01T01:45:54;42.85;;;27.20;;
55053;SDS011;40954;45.668;18.980;2023-03-01T01:48:21;52.88;;;32.33;;
55053;SDS011;40954;45.668;18.980;2023-03-01T01:50:51;46.83;;;30.85;;
55053;SDS011;40954;45.668;18.980;2023-03-01T01:53:19;43.72;;;28.95;;
55053;SDS011;40954;45.668;18.980;2023-03-01T01:55:47;45.20;;;29.05;;
55053;SDS011;40954;45.668;18.980;2023-03-01T01:58:15;42.60;;;29.65;;
55053;SDS011;40954;45.668;18.980;2023-03-01T02:00:43;48.17;;;30.77;;
55053;SDS011;40954;45.668;18.980;2023-03-01T02:03:10;46.42;;;29.27;;
55053;SDS011;40954;45.668;18.980;2023-03-01T02:05:56;41.33;;;28.20;;
55053;SDS011;40954;45.668;18.980;2023-03-01T02:08:25;51.25;;;28.75;;
55053;SDS011;40954;45.668;18.980;2023-03-01T02:10:52;41.65;;;28.85;;
55053;SDS011;40954;45.668;18.980;2023-03-01T02:13:20;44.30;;;29.90;;
55053;SDS011;40954;45.668;18.980;2023-03-01T02:15:46;43.83;;;29.02;;
55053;SDS011;40954;45.668;18.980;2023-03-01T02:18:14;43.25;;;29.63;;
55053;SDS011;40954;45.668;18.980;2023-03-01T02:20:51;39.50;;;27.88;;
55053;SDS011;40954;45.668;18.980;2023-03-01T02:23:20;43.67;;;27.70;;
55053;SDS011;40954;45.668;18.980;2023-03-01T02:28:40;31.85;;;22.08;;
55053;SDS011;40954;45.668;18.980;2023-03-01T02:31:07;41.42;;;26.52;;
55053;SDS011;40954;45.668;18.980;2023-03-01T02:33:52;39.13;;;26.02;;
55053;SDS011;40954;45.668;18.980;2023-03-01T02:36:21;41.00;;;29.30;;
55053;SDS011;40954;45.668;18.980;2023-03-01T02:38:49;43.10;;;29.27;;
55053;SDS011;40954;45.668;18.980;2023-03-01T02:41:16;38.85;;;26.65;;
55053;SDS011;40954;45.668;18.980;2023-03-01T02:43:43;40.60;;;27.55;;
55053;SDS011;40954;45.668;18.980;2023-03-01T02:46:19;39.58;;;27.50;;
55053;SDS011;40954;45.668;18.980;2023-03-01T02:48:47;37.83;;;26.50;;
55053;SDS011;40954;45.668;18.980;2023-03-01T02:51:18;36.70;;;26.60;;
55053;SDS011;40954;45.668;18.980;2023-03-01T02:56:16;41.08;;;27.25;;
55053;SDS011;40954;45.668;18.980;2023-03-01T02:58:43;40.28;;;26.75;;
55053;SDS011;40954;45.668;18.980;2023-03-01T03:01:16;40.00;;;27.70;;
55053;SDS011;40954;45.668;18.980;2023-03-01T03:03:42;36.80;;;26.85;;
55053;SDS011;40954;45.668;18.980;2023-03-01T03:06:08;38.38;;;26.10;;
55053;SDS011;40954;45.668;18.980;2023-03-01T03:08:34;40.97;;;27.55;;
55053;SDS011;40954;45.668;18.980;2023-03-01T03:11:00;37.55;;;27.75;;
55053;SDS011;40954;45.668;18.980;2023-03-01T03:13:27;37.45;;;27.55;;
55053;SDS011;40954;45.668;18.980;2023-03-01T03:15:54;40.97;;;28.05;;
55053;SDS011;40954;45.668;18.980;2023-03-01T03:18:20;40.22;;;27.15;;
55053;SDS011;40954;45.668;18.980;2023-03-01T03:20:47;40.00;;;27.48;;
55053;SDS011;40954;45.668;18.980;2023-03-01T03:23:17;37.58;;;26.58;;
55053;SDS011;40954;45.668;18.980;2023-03-01T03:25:43;39.47;;;26.45;;
55053;SDS011;40954;45.668;18.980;2023-03-01T03:28:09;37.97;;;27.08;;
55053;SDS011;40954;45.668;18.980;2023-03-01T03:30:36;35.00;;;25.83;;
55053;SDS011;40954;45.668;18.980;2023-03-01T03:33:04;36.00;;;25.15;;
55053;SDS011;40954;45.668;18.980;2023-03-01T03:35:31;39.08;;;26.08;;
55053;SDS011;40954;45.668;18.980;2023-03-01T03:37:59;35.20;;;25.13;;
55053;SDS011;40954;45.668;18.980;2023-03-01T03:40:29;36.63;;;25.52;;
55053;SDS011;40954;45.668;18.980;2023-03-01T03:42:55;38.08;;;26.13;;
55053;SDS011;40954;45.668;18.980;2023-03-01T03:45:21;37.33;;;25.65;;
55053;SDS011;40954;45.668;18.980;2023-03-01T03:47:47;35.95;;;24.95;;
55053;SDS011;40954;45.668;18.980;2023-03-01T03:50:14;33.58;;;24.48;;
55053;SDS011;40954;45.668;18.980;2023-03-01T03:52:41;35.63;;;24.83;;
55053;SDS011;40954;45.668;18.980;2023-03-01T03:55:08;36.42;;;24.60;;
55053;SDS011;40954;45.668;18.980;2023-03-01T03:57:34;36.80;;;25.90;;
55053;SDS011;40954;45.668;18.980;2023-03-01T04:00:01;36.70;;;25.45;;
55053;SDS011;40954;45.668;18.980;2023-03-01T04:02:29;37.45;;;26.33;;
55053;SDS011;40954;45.668;18.980;2023-03-01T04:04:55;36.45;;;25.92;;
55053;SDS011;40954;45.668;18.980;2023-03-01T04:07:21;33.40;;;24.35;;
55053;SDS011;40954;45.668;18.980;2023-03-01T04:09:47;34.70;;;25.45;;
55053;SDS011;40954;45.668;18.980;2023-03-01T04:12:13;40.40;;;24.95;;
55053;SDS011;40954;45.668;18.980;2023-03-01T04:14:45;27.52;;;19.88;;
55053;SDS011;40954;45.668;18.980;2023-03-01T04:17:11;36.40;;;25.45;;
55053;SDS011;40954;45.668;18.980;2023-03-01T04:19:37;36.20;;;25.77;;
55053;SDS011;40954;45.668;18.980;2023-03-01T04:22:03;37.35;;;25.65;;
55053;SDS011;40954;45.668;18.980;2023-03-01T04:24:34;31.95;;;24.33;;
55053;SDS011;40954;45.668;18.980;2023-03-01T04:27:00;33.35;;;23.75;;
55053;SDS011;40954;45.668;18.980;2023-03-01T04:29:26;36.88;;;25.23;;
55053;SDS011;40954;45.668;18.980;2023-03-01T04:31:52;36.20;;;25.17;;
55053;SDS011;40954;45.668;18.980;2023-03-01T04:34:19;46.75;;;27.25;;
55053;SDS011;40954;45.668;18.980;2023-03-01T04:36:45;36.95;;;26.00;;
55053;SDS011;40954;45.668;18.980;2023-03-01T04:39:11;39.15;;;26.13;;
55053;SDS011;40954;45.668;18.980;2023-03-01T04:41:37;42.15;;;26.88;;
55053;SDS011;40954;45.668;18.980;2023-03-01T04:44:04;33.65;;;23.77;;
55053;SDS011;40954;45.668;18.980;2023-03-01T04:46:30;34.95;;;24.25;;
55053;SDS011;40954;45.668;18.980;2023-03-01T04:48:56;38.38;;;26.15;;
55053;SDS011;40954;45.668;18.980;2023-03-01T04:51:22;35.90;;;25.30;;
55053;SDS011;40954;45.668;18.980;2023-03-01T04:53:48;33.75;;;26.15;;
55053;SDS011;40954;45.668;18.980;2023-03-01T04:56:14;36.45;;;25.90;;
55053;SDS011;40954;45.668;18.980;2023-03-01T04:58:40;35.92;;;25.95;;
55053;SDS011;40954;45.668;18.980;2023-03-01T05:01:10;34.88;;;24.35;;
55053;SDS011;40954;45.668;18.980;2023-03-01T05:03:40;37.47;;;25.75;;
55053;SDS011;40954;45.668;18.980;2023-03-01T05:06:06;37.92;;;25.77;;
55053;SDS011;40954;45.668;18.980;2023-03-01T05:08:32;34.70;;;25.08;;
55053;SDS011;40954;45.668;18.980;2023-03-01T05:11:02;33.35;;;24.70;;
55053;SDS011;40954;45.668;18.980;2023-03-01T05:13:28;35.65;;;24.75;;
55053;SDS011;40954;45.668;18.980;2023-03-01T05:15:58;35.63;;;24.73;;
55053;SDS011;40954;45.668;18.980;2023-03-01T05:18:24;34.53;;;25.60;;
55053;SDS011;40954;45.668;18.980;2023-03-01T05:20:51;38.08;;;25.67;;
55053;SDS011;40954;45.668;18.980;2023-03-01T05:23:17;35.17;;;26.27;;
55053;SDS011;40954;45.668;18.980;2023-03-01T05:25:43;35.53;;;25.85;;
55053;SDS011;40954;45.668;18.980;2023-03-01T05:28:13;37.00;;;24.27;;
55053;SDS011;40954;45.668;18.980;2023-03-01T05:30:39;35.22;;;25.48;;
55053;SDS011;40954;45.668;18.980;2023-03-01T05:33:08;37.45;;;26.10;;
55053;SDS011;40954;45.668;18.980;2023-03-01T05:35:41;34.80;;;25.85;;
55053;SDS011;40954;45.668;18.980;2023-03-01T05:38:07;38.08;;;26.75;;
55053;SDS011;40954;45.668;18.980;2023-03-01T05:40:34;37.50;;;25.98;;
55053;SDS011;40954;45.668;18.980;2023-03-01T05:43:00;39.40;;;26.30;;
55053;SDS011;40954;45.668;18.980;2023-03-01T05:45:27;33.83;;;25.58;;
55053;SDS011;40954;45.668;18.980;2023-03-01T05:47:53;33.47;;;24.73;;
55053;SDS011;40954;45.668;18.980;2023-03-01T05:50:23;35.45;;;25.80;;
55053;SDS011;40954;45.668;18.980;2023-03-01T05:53:23;41.42;;;27.75;;
55053;SDS011;40954;45.668;18.980;2023-03-01T05:55:42;42.17;;;27.08;;
55053;SDS011;40954;45.668;18.980;2023-03-01T05:58:11;41.47;;;28.38;;
55053;SDS011;40954;45.668;18.980;2023-03-01T06:00:39;38.45;;;28.42;;
55053;SDS011;40954;45.668;18.980;2023-03-01T06:03:05;43.40;;;27.63;;
55053;SDS011;40954;45.668;18.980;2023-03-01T06:05:31;37.65;;;26.60;;
55053;SDS011;40954;45.668;18.980;2023-03-01T06:08:00;42.40;;;28.85;;
55053;SDS011;40954;45.668;18.980;2023-03-01T06:10:26;38.58;;;27.38;;
55053;SDS011;40954;45.668;18.980;2023-03-01T06:12:53;39.70;;;26.63;;
55053;SDS011;40954;45.668;18.980;2023-03-01T06:15:19;40.75;;;27.55;;
55053;SDS011;40954;45.668;18.980;2023-03-01T06:17:45;39.47;;;26.77;;
55053;SDS011;40954;45.668;18.980;2023-03-01T06:20:13;36.47;;;26.70;;
55053;SDS011;40954;45.668;18.980;2023-03-01T06:22:39;44.17;;;29.27;;
55053;SDS011;40954;45.668;18.980;2023-03-01T06:25:07;37.45;;;27.17;;
55053;SDS011;40954;45.668;18.980;2023-03-01T06:27:33;37.95;;;28.00;;
55053;SDS011;40954;45.668;18.980;2023-03-01T06:29:59;43.80;;;31.50;;
55053;SDS011;40954;45.668;18.980;2023-03-01T06:32:26;45.28;;;36.42;;
55053;SDS011;40954;45.668;18.980;2023-03-01T06:34:52;43.83;;;31.42;;
55053;SDS011;40954;45.668;18.980;2023-03-01T06:37:18;44.35;;;29.38;;
55053;SDS011;40954;45.668;18.980;2023-03-01T06:39:44;45.50;;;29.83;;
55053;SDS011;40954;45.668;18.980;2023-03-01T06:42:10;44.03;;;30.38;;
55053;SDS011;40954;45.668;18.980;2023-03-01T06:44:36;41.55;;;29.35;;
55053;SDS011;40954;45.668;18.980;2023-03-01T06:47:03;38.45;;;28.35;;
55053;SDS011;40954;45.668;18.980;2023-03-01T06:49:29;39.40;;;28.55;;
55053;SDS011;40954;45.668;18.980;2023-03-01T06:51:55;45.00;;;29.45;;
55053;SDS011;40954;45.668;18.980;2023-03-01T06:54:22;43.42;;;29.20;;
55053;SDS011;40954;45.668;18.980;2023-03-01T06:56:48;44.38;;;29.00;;
55053;SDS011;40954;45.668;18.980;2023-03-01T06:59:15;41.53;;;29.33;;
55053;SDS011;40954;45.668;18.980;2023-03-01T07:01:41;42.33;;;28.27;;
55053;SDS011;40954;45.668;18.980;2023-03-01T07:04:07;39.25;;;29.42;;
55053;SDS011;40954;45.668;18.980;2023-03-01T07:06:33;43.60;;;29.90;;
55053;SDS011;40954;45.668;18.980;2023-03-01T07:08:59;40.10;;;30.25;;
55053;SDS011;40954;45.668;18.980;2023-03-01T07:11:25;39.08;;;28.23;;
55053;SDS011;40954;45.668;18.980;2023-03-01T07:13:51;46.63;;;30.20;;
55053;SDS011;40954;45.668;18.980;2023-03-01T07:16:17;40.58;;;27.58;;
55053;SDS011;40954;45.668;18.980;2023-03-01T07:18:45;38.75;;;27.85;;
55053;SDS011;40954;45.668;18.980;2023-03-01T07:21:12;36.05;;;26.88;;
55053;SDS011;40954;45.668;18.980;2023-03-01T07:23:38;36.58;;;26.80;;
55053;SDS011;40954;45.668;18.980;2023-03-01T07:26:04;39.38;;;27.33;;
55053;SDS011;40954;45.668;18.980;2023-03-01T07:28:31;38.08;;;27.92;;
55053;SDS011;40954;45.668;18.980;2023-03-01T07:31:04;38.50;;;27.90;;
55053;SDS011;40954;45.668;18.980;2023-03-01T07:33:30;38.83;;;28.25;;
55053;SDS011;40954;45.668;18.980;2023-03-01T07:36:00;37.40;;;27.33;;
55053;SDS011;40954;45.668;18.980;2023-03-01T07:38:26;38.40;;;27.63;;
55053;SDS011;40954;45.668;18.980;2023-03-01T07:40:53;38.85;;;27.88;;
55053;SDS011;40954;45.668;18.980;2023-03-01T07:43:19;38.42;;;26.63;;
55053;SDS011;40954;45.668;18.980;2023-03-01T07:45:45;41.17;;;29.02;;
55053;SDS011;40954;45.668;18.980;2023-03-01T07:48:11;36.53;;;27.35;;
55053;SDS011;40954;45.668;18.980;2023-03-01T07:50:37;38.60;;;28.63;;
55053;SDS011;40954;45.668;18.980;2023-03-01T07:53:03;39.80;;;28.48;;
55053;SDS011;40954;45.668;18.980;2023-03-01T07:55:29;37.72;;;27.23;;
55053;SDS011;40954;45.668;18.980;2023-03-01T07:57:55;42.53;;;31.05;;
55053;SDS011;40954;45.668;18.980;2023-03-01T08:00:21;40.85;;;29.85;;
55053;SDS011;40954;45.668;18.980;2023-03-01T08:02:47;39.55;;;29.23;;
55053;SDS011;40954;45.668;18.980;2023-03-01T08:05:13;40.13;;;28.00;;
55053;SDS011;40954;45.668;18.980;2023-03-01T08:07:39;37.28;;;27.80;;
55053;SDS011;40954;45.668;18.980;2023-03-01T08:10:06;37.75;;;27.95;;
55053;SDS011;40954;45.668;18.980;2023-03-01T08:12:32;40.97;;;28.90;;
55053;SDS011;40954;45.668;18.980;2023-03-01T08:14:58;39.92;;;28.92;;
55053;SDS011;40954;45.668;18.980;2023-03-01T08:17:24;41.13;;;28.63;;
55053;SDS011;40954;45.668;18.980;2023-03-01T08:19:50;39.92;;;28.10;;
55053;SDS011;40954;45.668;18.980;2023-03-01T08:22:16;46.42;;;31.52;;
55053;SDS011;40954;45.668;18.980;2023-03-01T08:24:42;38.67;;;29.40;;
55053;SDS011;40954;45.668;18.980;2023-03-01T08:27:08;38.83;;;28.45;;
55053;SDS011;40954;45.668;18.980;2023-03-01T08:29:34;39.58;;;28.30;;
55053;SDS011;40954;45.668;18.980;2023-03-01T08:32:01;41.72;;;28.20;;
55053;SDS011;40954;45.668;18.980;2023-03-01T08:34:27;39.05;;;27.88;;
55053;SDS011;40954;45.668;18.980;2023-03-01T08:36:53;38.80;;;29.45;;
55053;SDS011;40954;45.668;18.980;2023-03-01T08:39:19;44.50;;;28.50;;
55053;SDS011;40954;45.668;18.980;2023-03-01T08:41:46;40.15;;;27.52;;
55053;SDS011;40954;45.668;18.980;2023-03-01T08:44:13;35.60;;;26.17;;
55053;SDS011;40954;45.668;18.980;2023-03-01T08:46:40;38.92;;;27.00;;
55053;SDS011;40954;45.668;18.980;2023-03-01T08:49:10;37.47;;;27.38;;
55053;SDS011;40954;45.668;18.980;2023-03-01T08:51:37;43.03;;;29.65;;
55053;SDS011;40954;45.668;18.980;2023-03-01T08:54:06;44.70;;;30.60;;
55053;SDS011;40954;45.668;18.980;2023-03-01T08:56:32;42.45;;;28.70;;
55053;SDS011;40954;45.668;18.980;2023-03-01T08:58:58;42.17;;;29.98;;
55053;SDS011;40954;45.668;18.980;2023-03-01T09:01:24;40.85;;;29.95;;
55053;SDS011;40954;45.668;18.980;2023-03-01T09:03:50;42.47;;;30.85;;
55053;SDS011;40954;45.668;18.980;2023-03-01T09:06:17;42.35;;;29.02;;
55053;SDS011;40954;45.668;18.980;2023-03-01T09:08:44;39.10;;;28.85;;
55053;SDS011;40954;45.668;18.980;2023-03-01T09:11:11;41.38;;;28.30;;
55053;SDS011;40954;45.668;18.980;2023-03-01T09:13:37;40.33;;;27.83;;
55053;SDS011;40954;45.668;18.980;2023-03-01T09:16:04;40.75;;;27.20;;
55053;SDS011;40954;45.668;18.980;2023-03-01T09:18:30;36.40;;;27.58;;
55053;SDS011;40954;45.668;18.980;2023-03-01T09:21:03;36.90;;;26.23;;
55053;SDS011;40954;45.668;18.980;2023-03-01T09:23:32;38.13;;;27.67;;
55053;SDS011;40954;45.668;18.980;2023-03-01T09:25:58;40.13;;;27.58;;
55053;SDS011;40954;45.668;18.980;2023-03-01T09:28:24;35.22;;;25.52;;
55053;SDS011;40954;45.668;18.980;2023-03-01T09:30:50;37.92;;;28.15;;
55053;SDS011;40954;45.668;18.980;2023-03-01T09:33:16;38.80;;;28.77;;
55053;SDS011;40954;45.668;18.980;2023-03-01T09:35:42;42.75;;;29.67;;
55053;SDS011;40954;45.668;18.980;2023-03-01T09:38:12;39.28;;;27.15;;
55053;SDS011;40954;45.668;18.980;2023-03-01T09:40:41;37.75;;;26.63;;
55053;SDS011;40954;45.668;18.980;2023-03-01T09:45:41;40.05;;;27.38;;
55053;SDS011;40954;45.668;18.980;2023-03-01T09:48:12;33.00;;;25.90;;
55053;SDS011;40954;45.668;18.980;2023-03-01T09:50:41;37.10;;;27.73;;
55053;SDS011;40954;45.668;18.980;2023-03-01T09:53:19;36.95;;;25.92;;
55053;SDS011;40954;45.668;18.980;2023-03-01T09:55:50;34.88;;;25.45;;
55053;SDS011;40954;45.668;18.980;2023-03-01T10:00:56;37.60;;;26.70;;
55053;SDS011;40954;45.668;18.980;2023-03-01T10:03:27;32.67;;;25.67;;
55053;SDS011;40954;45.668;18.980;2023-03-01T10:05:59;36.75;;;26.75;;
55053;SDS011;40954;45.668;18.980;2023-03-01T10:10:55;35.10;;;26.70;;
55053;SDS011;40954;45.668;18.980;2023-03-01T10:15:53;35.55;;;27.70;;
55053;SDS011;40954;45.668;18.980;2023-03-01T10:18:22;33.40;;;25.02;;
55053;SDS011;40954;45.668;18.980;2023-03-01T10:20:53;35.00;;;26.70;;
55053;SDS011;40954;45.668;18.980;2023-03-01T10:23:22;32.80;;;25.03;;
55053;SDS011;40954;45.668;18.980;2023-03-01T10:31:09;39.60;;;27.88;;
55053;SDS011;40954;45.668;18.980;2023-03-01T10:33:37;59.92;;;43.45;;
55053;SDS011;40954;45.668;18.980;2023-03-01T10:36:07;47.40;;;34.78;;
55053;SDS011;40954;45.668;18.980;2023-03-01T10:38:50;36.65;;;28.05;;
55053;SDS011;40954;45.668;18.980;2023-03-01T10:41:19;32.13;;;25.58;;
55053;SDS011;40954;45.668;18.980;2023-03-01T10:43:52;33.88;;;25.63;;
55053;SDS011;40954;45.668;18.980;2023-03-01T10:46:39;33.33;;;25.27;;
55053;SDS011;40954;45.668;18.980;2023-03-01T10:51:41;32.75;;;24.23;;
55053;SDS011;40954;45.668;18.980;2023-03-01T10:56:49;34.25;;;26.23;;
55053;SDS011;40954;45.668;18.980;2023-03-01T10:59:26;36.97;;;28.27;;
55053;SDS011;40954;45.668;18.980;2023-03-01T11:04:37;38.05;;;26.98;;
55053;SDS011;40954;45.668;18.980;2023-03-01T11:07:03;34.40;;;26.95;;
55053;SDS011;40954;45.668;18.980;2023-03-01T11:09:32;37.83;;;27.70;;
55053;SDS011;40954;45.668;18.980;2023-03-01T11:12:08;41.33;;;28.63;;
55053;SDS011;40954;45.668;18.980;2023-03-01T11:14:39;33.85;;;27.42;;
55053;SDS011;40954;45.668;18.980;2023-03-01T11:19:37;35.70;;;27.95;;
55053;SDS011;40954;45.668;18.980;2023-03-01T11:22:19;35.97;;;26.95;;
55053;SDS011;40954;45.668;18.980;2023-03-01T11:24:47;36.08;;;27.88;;
55053;SDS011;40954;45.668;18.980;2023-03-01T11:27:27;34.85;;;27.38;;
55053;SDS011;40954;45.668;18.980;2023-03-01T11:30:27;34.70;;;28.20;;
55053;SDS011;40954;45.668;18.980;2023-03-01T11:33:33;38.20;;;29.63;;
55053;SDS011;40954;45.668;18.980;2023-03-01T11:35:32;36.60;;;28.17;;
55053;SDS011;40954;45.668;18.980;2023-03-01T11:40:39;38.25;;;28.40;;
55053;SDS011;40954;45.668;18.980;2023-03-01T11:45:47;32.67;;;26.73;;
55053;SDS011;40954;45.668;18.980;2023-03-01T11:48:23;35.97;;;26.70;;
55053;SDS011;40954;45.668;18.980;2023-03-01T11:50:51;37.00;;;29.33;;
55053;SDS011;40954;45.668;18.980;2023-03-01T12:06:28;39.50;;;28.40;;
55053;SDS011;40954;45.668;18.980;2023-03-01T12:19:27;35.75;;;28.05;;
55053;SDS011;40954;45.668;18.980;2023-03-01T12:24:59;38.95;;;29.33;;
55053;SDS011;40954;45.668;18.980;2023-03-01T12:27:37;41.47;;;31.33;;
55053;SDS011;40954;45.668;18.980;2023-03-01T12:30:29;44.78;;;31.00;;
55053;SDS011;40954;45.668;18.980;2023-03-01T12:43:57;45.55;;;32.05;;
55053;SDS011;40954;45.668;18.980;2023-03-01T12:46:32;46.65;;;32.33;;
55053;SDS011;40954;45.668;18.980;2023-03-01T12:51:30;47.03;;;32.08;;
55053;SDS011;40954;45.668;18.980;2023-03-01T12:53:57;42.50;;;32.05;;
55053;SDS011;40954;45.668;18.980;2023-03-01T12:56:25;44.67;;;31.35;;
55053;SDS011;40954;45.668;18.980;2023-03-01T13:01:39;39.38;;;30.48;;
55053;SDS011;40954;45.668;18.980;2023-03-01T13:11:52;41.65;;;29.58;;
55053;SDS011;40954;45.668;18.980;2023-03-01T13:16:48;39.90;;;30.80;;
55053;SDS011;40954;45.668;18.980;2023-03-01T13:19:18;39.83;;;30.08;;
55053;SDS011;40954;45.668;18.980;2023-03-01T13:21:45;41.22;;;30.02;;
55053;SDS011;40954;45.668;18.980;2023-03-01T13:24:28;41.90;;;29.65;;
55053;SDS011;40954;45.668;18.980;2023-03-01T13:29:29;41.50;;;31.65;;
55053;SDS011;40954;45.668;18.980;2023-03-01T13:32:06;45.47;;;32.83;;
55053;SDS011;40954;45.668;18.980;2023-03-01T13:34:47;43.47;;;33.17;;
55053;SDS011;40954;45.668;18.980;2023-03-01T13:37:24;46.25;;;34.83;;
55053;SDS011;40954;45.668;18.980;2023-03-01T13:39:51;48.75;;;35.72;;
55053;SDS011;40954;45.668;18.980;2023-03-01T13:42:29;47.38;;;36.08;;
55053;SDS011;40954;45.668;18.980;2023-03-01T13:44:56;51.13;;;37.35;;
55053;SDS011;40954;45.668;18.980;2023-03-01T13:47:22;56.78;;;39.60;;
55053;SDS011;40954;45.668;18.980;2023-03-01T13:49:59;62.78;;;42.25;;
55053;SDS011;40954;45.668;18.980;2023-03-01T13:55:26;58.70;;;43.22;;
55053;SDS011;40954;45.668;18.980;2023-03-01T13:57:55;64.15;;;44.92;;
55053;SDS011;40954;45.668;18.980;2023-03-01T14:03:04;67.97;;;49.15;;
55053;SDS011;40954;45.668;18.980;2023-03-01T14:05:31;62.83;;;44.63;;
55053;SDS011;40954;45.668;18.980;2023-03-01T14:07:58;60.03;;;44.83;;
55053;SDS011;40954;45.668;18.980;2023-03-01T14:10:25;63.67;;;47.15;;
55053;SDS011;40954;45.668;18.980;2023-03-01T14:13:09;65.40;;;45.92;;
55053;SDS011;40954;45.668;18.980;2023-03-01T14:18:31;52.50;;;35.05;;
55053;SDS011;40954;45.668;18.980;2023-03-01T14:23:27;61.45;;;43.63;;
55053;SDS011;40954;45.668;18.980;2023-03-01T14:25:55;60.20;;;44.20;;
55053;SDS011;40954;45.668;18.980;2023-03-01T14:28:23;61.08;;;47.42;;
55053;SDS011;40954;45.668;18.980;2023-03-01T14:30:52;61.47;;;44.42;;
55053;SDS011;40954;45.668;18.980;2023-03-01T14:33:25;56.17;;;42.60;;
55053;SDS011;40954;45.668;18.980;2023-03-01T14:38:37;54.33;;;38.47;;
55053;SDS011;40954;45.668;18.980;2023-03-01T14:41:10;44.63;;;35.00;;
55053;SDS011;40954;45.668;18.980;2023-03-01T14:43:41;45.55;;;34.42;;
55053;SDS011;40954;45.668;18.980;2023-03-01T14:46:17;41.67;;;33.78;;
55053;SDS011;40954;45.668;18.980;2023-03-01T14:48:43;46.28;;;34.42;;
55053;SDS011;40954;45.668;18.980;2023-03-01T14:51:09;44.58;;;35.55;;
55053;SDS011;40954;45.668;18.980;2023-03-01T14:53:36;43.22;;;34.85;;
55053;SDS011;40954;45.668;18.980;2023-03-01T14:56:02;45.88;;;35.45;;
55053;SDS011;40954;45.668;18.980;2023-03-01T14:58:28;46.35;;;35.20;;
55053;SDS011;40954;45.668;18.980;2023-03-01T15:00:55;47.58;;;38.45;;
55053;SDS011;40954;45.668;18.980;2023-03-01T15:05:50;51.85;;;38.65;;
55053;SDS011;40954;45.668;18.980;2023-03-01T15:08:18;53.70;;;39.35;;
55053;SDS011;40954;45.668;18.980;2023-03-01T15:10:56;53.22;;;40.63;;
55053;SDS011;40954;45.668;18.980;2023-03-01T15:13:23;55.47;;;41.45;;
55053;SDS011;40954;45.668;18.980;2023-03-01T15:15:50;54.72;;;41.88;;
55053;SDS011;40954;45.668;18.980;2023-03-01T15:18:18;53.55;;;41.15;;
55053;SDS011;40954;45.668;18.980;2023-03-01T15:20:45;59.33;;;43.55;;
55053;SDS011;40954;45.668;18.980;2023-03-01T15:23:21;52.85;;;41.30;;
55053;SDS011;40954;45.668;18.980;2023-03-01T15:25:48;52.20;;;38.08;;
55053;SDS011;40954;45.668;18.980;2023-03-01T15:28:37;50.55;;;37.47;;
55053;SDS011;40954;45.668;18.980;2023-03-01T15:33:34;49.75;;;36.50;;
55053;SDS011;40954;45.668;18.980;2023-03-01T15:36:01;51.35;;;35.97;;
55053;SDS011;40954;45.668;18.980;2023-03-01T15:41:04;48.92;;;36.30;;
55053;SDS011;40954;45.668;18.980;2023-03-01T15:44:14;50.92;;;35.42;;
55053;SDS011;40954;45.668;18.980;2023-03-01T15:48:50;51.85;;;36.47;;
55053;SDS011;40954;45.668;18.980;2023-03-01T15:51:17;57.20;;;36.75;;
55053;SDS011;40954;45.668;18.980;2023-03-01T15:53:47;46.65;;;36.80;;
55053;SDS011;40954;45.668;18.980;2023-03-01T15:56:14;49.67;;;38.38;;
55053;SDS011;40954;45.668;18.980;2023-03-01T15:58:40;50.10;;;37.15;;
55053;SDS011;40954;45.668;18.980;2023-03-01T16:01:09;55.17;;;37.53;;
55053;SDS011;40954;45.668;18.980;2023-03-01T16:03:37;55.00;;;37.33;;
55053;SDS011;40954;45.668;18.980;2023-03-01T16:06:03;55.38;;;39.10;;
55053;SDS011;40954;45.668;18.980;2023-03-01T16:08:29;56.38;;;40.30;;
55053;SDS011;40954;45.668;18.980;2023-03-01T16:10:55;55.65;;;39.22;;